Time;durP1;ratioP1;P1;durP2;ratioP2;P2;SDS_P1;SDS_P2;PMS_P1;PMS_P2;Temp;Humidity;BMP_temperature;BMP_pressure;BME280_temperature;BME280_humidity;BME280_pressure;Samples;Min_cycle;Max_cycle;Signal;HPM_P1;HPM_P2
2023/09/10 00:00:42;;;;;;;12.90;11.60;;;;;;;14.40;75.85;97647.04;104866;1260;99982;-72
2023/09/10 00:03:32;;;;;;;12.90;10.90;;;;;;;14.38;75.86;97646.37;104760;1263;97104;-72
2023/09/10 00:06:01;;;;;;;15.40;12.30;;;;;;;14.36;75.78;97645.33;104859;1267;97089;-71
2023/09/10 00:08:30;;;;;;;16.10;11.70;;;;;;;14.34;75.89;97646.81;104477;1277;111699;-79
2023/09/10 00:10:58;;;;;;;16.00;11.70;;;;;;;14.33;75.80;97646.66;104827;1268;109803;-79
2023/09/10 00:13:26;;;;;;;13.60;11.90;;;;;;;14.32;75.78;97647.60;104785;1260;100244;-80
2023/09/10 00:15:56;;;;;;;15.00;11.70;;;;;;;14.30;75.83;97645.98;104846;1260;96641;-81
2023/09/10 00:18:24;;;;;;;17.10;12.30;;;;;;;14.29;75.98;97645.57;104650;1262;97300;-80
2023/09/10 00:20:53;;;;;;;17.30;12.70;;;;;;;14.29;76.10;97646.25;104940;1260;102386;-82
2023/09/10 00:23:21;;;;;;;15.70;12.70;;;;;;;14.26;76.23;97647.66;104877;1259;99721;-80
2023/09/10 00:25:49;;;;;;;21.50;12.60;;;;;;;14.21;76.37;97650.50;104584;1275;99977;-73
2023/09/10 00:28:16;;;;;;;18.00;13.20;;;;;;;14.14;76.61;97647.62;104804;1269;97215;-73
2023/09/10 00:30:44;;;;;;;18.70;13.60;;;;;;;14.07;76.80;97645.37;104823;1268;97215;-81
2023/09/10 00:33:12;;;;;;;16.30;12.50;;;;;;;14.06;76.85;97643.61;104839;1259;102149;-80
2023/09/10 00:35:39;;;;;;;18.00;12.80;;;;;;;14.06;76.78;97640.15;104906;1259;101312;-78
2023/09/10 00:38:07;;;;;;;15.50;13.40;;;;;;;14.04;76.78;97641.50;104757;1257;99040;-80
2023/09/10 00:40:35;;;;;;;15.70;12.20;;;;;;;14.03;76.81;97642.98;104872;1257;96780;-80
2023/09/10 00:43:02;;;;;;;15.10;12.00;;;;;;;14.01;76.82;97641.67;104786;1270;98007;-80
2023/09/10 00:45:31;;;;;;;16.20;13.10;;;;;;;13.98;76.72;97636.88;104862;1278;102213;-80
2023/09/10 00:47:59;;;;;;;15.20;12.50;;;;;;;13.95;76.89;97637.32;104754;1268;100381;-80
2023/09/10 00:50:27;;;;;;;15.00;13.10;;;;;;;13.93;77.04;97632.83;104530;1262;98550;-80
2023/09/10 00:52:58;;;;;;;16.80;13.60;;;;;;;13.92;76.96;97636.30;104814;1260;97212;-80
2023/09/10 00:55:29;;;;;;;15.60;13.10;;;;;;;13.89;77.06;97634.05;104916;1268;96662;-80
2023/09/10 00:57:58;;;;;;;20.10;13.60;;;;;;;13.85;77.32;97632.64;104597;1263;101345;-80
2023/09/10 01:00:28;;;;;;;17.50;14.10;;;;;;;13.83;77.43;97633.55;104870;1269;101675;-72
2023/09/10 01:02:58;;;;;;;17.90;14.20;;;;;;;13.83;77.56;97631.20;104606;1267;99403;-81
2023/09/10 01:05:26;;;;;;;17.40;13.30;;;;;;;13.83;77.64;97630.12;104470;1277;97305;-80
2023/09/10 01:07:55;;;;;;;15.70;13.00;;;;;;;13.82;77.63;97632.00;104830;1260;97288;-80
2023/09/10 01:10:30;;;;;;;18.40;12.50;;;;;;;13.82;77.58;97635.68;104564;1267;102239;-80
2023/09/10 01:13:13;;;;;;;16.30;12.30;;;;;;;13.82;77.56;97638.02;104608;1265;100370;-81
2023/09/10 01:15:49;;;;;;;15.80;12.20;;;;;;;13.82;77.58;97634.92;104482;1282;98313;-81
2023/09/10 01:18:32;;;;;;;16.30;12.60;;;;;;;13.81;77.56;97631.93;104574;1267;96793;-81
2023/09/10 01:21:19;;;;;;;15.20;12.10;;;;;;;13.80;77.63;97629.98;104515;1266;97202;-72
2023/09/10 01:24:22;;;;;;;16.30;12.20;;;;;;;13.80;77.52;97631.55;104463;1269;110262;-81
2023/09/10 01:26:58;;;;;;;14.10;12.20;;;;;;;13.79;77.61;97627.02;104437;1264;101436;-81
2023/09/10 01:29:25;;;;;;;15.60;12.60;;;;;;;13.79;77.51;97628.36;104509;1275;99966;-80
2023/09/10 01:31:59;;;;;;;14.90;13.20;;;;;;;13.77;77.46;97629.89;104486;1273;96736;-72
2023/09/10 01:34:32;;;;;;;16.70;12.60;;;;;;;13.75;77.46;97628.80;104520;1261;98304;-72
2023/09/10 01:37:19;;;;;;;13.20;10.90;;;;;;;13.71;77.52;97629.66;104305;1261;101276;-72
2023/09/10 01:39:52;;;;;;;15.80;11.80;;;;;;;13.60;77.46;97633.66;104457;1267;101409;-72
2023/09/10 01:42:23;;;;;;;16.10;12.10;;;;;;;13.53;77.60;97632.48;104729;1263;99773;-79
2023/09/10 01:44:52;;;;;;;13.70;11.40;;;;;;;13.53;77.63;97628.90;104372;1273;96845;-80
2023/09/10 01:47:20;;;;;;;16.50;12.20;;;;;;;13.51;77.75;97627.97;104501;1267;97128;-80
2023/09/10 01:49:47;;;;;;;13.80;11.70;;;;;;;13.48;77.93;97627.17;104340;1266;102497;-80
2023/09/10 01:52:15;;;;;;;15.80;11.70;;;;;;;13.48;77.87;97625.21;104503;1271;101461;-80
2023/09/10 01:54:43;;;;;;;17.70;13.20;;;;;;;13.47;77.98;97625.63;104483;1262;100081;-80
2023/09/10 01:57:11;;;;;;;16.30;13.30;;;;;;;13.42;78.08;97628.34;104480;1262;96662;-80
2023/09/10 01:59:39;;;;;;;14.90;13.30;;;;;;;13.38;78.06;97628.39;104523;1272;97089;-72
2023/09/10 02:02:06;;;;;;;14.40;12.80;;;;;;;13.38;78.11;97625.69;104566;1261;102513;-73
2023/09/10 02:04:34;;;;;;;18.70;13.30;;;;;;;13.39;78.17;97624.14;104546;1266;101749;-72
2023/09/10 02:07:02;;;;;;;18.00;14.40;;;;;;;13.38;78.31;97627.69;104519;1271;99496;-72
2023/09/10 02:09:29;;;;;;;17.70;13.90;;;;;;;13.38;78.34;97628.06;104299;1266;96709;-73
2023/09/10 02:11:57;;;;;;;16.90;12.70;;;;;;;13.35;78.27;97629.80;104324;1276;97388;-73
2023/09/10 02:14:25;;;;;;;17.90;13.40;;;;;;;13.31;78.58;97628.08;104344;1275;102350;-73
2023/09/10 02:16:52;;;;;;;18.80;14.10;;;;;;;13.23;78.83;97624.94;104465;1263;100123;-80
2023/09/10 02:19:20;;;;;;;17.70;14.00;;;;;;;13.19;78.78;97626.68;104454;1273;98621;-72
2023/09/10 02:21:48;;;;;;;15.50;13.80;;;;;;;13.18;78.99;97624.23;104515;1263;97979;-72
2023/09/10 02:24:15;;;;;;;20.80;14.50;;;;;;;13.21;78.94;97628.05;104532;1264;97513;-72
2023/09/10 02:26:43;;;;;;;16.60;13.90;;;;;;;13.24;78.89;97627.56;104527;1262;102362;-72
2023/09/10 02:29:11;;;;;;;17.60;12.90;;;;;;;13.25;78.90;97624.63;104613;1263;101312;-72
2023/09/10 02:31:38;;;;;;;15.90;12.90;;;;;;;13.25;78.67;97629.39;104469;1270;99929;-79
2023/09/10 02:34:06;;;;;;;16.70;12.70;;;;;;;13.25;78.72;97630.73;104488;1261;97397;-79
2023/09/10 02:36:34;;;;;;;17.50;13.40;;;;;;;13.23;78.69;97636.25;104518;1263;97009;-79
2023/09/10 02:39:01;;;;;;;17.50;12.60;;;;;;;13.19;78.67;97631.77;104495;1264;110015;-72
2023/09/10 02:41:29;;;;;;;16.20;13.00;;;;;;;13.15;78.69;97630.65;104521;1273;101482;-72
2023/09/10 02:43:57;;;;;;;15.30;12.70;;;;;;;13.14;78.74;97630.30;104506;1273;99872;-72
2023/09/10 02:46:25;;;;;;;19.00;12.90;;;;;;;13.13;78.86;97631.64;104479;1264;96802;-80
2023/09/10 02:48:52;;;;;;;14.80;12.50;;;;;;;13.11;78.87;97630.53;104920;1266;98068;-78
2023/09/10 02:51:20;;;;;;;16.30;12.60;;;;;;;13.08;78.93;97631.77;104953;1268;102343;-79
2023/09/10 02:53:48;;;;;;;16.70;13.10;;;;;;;13.06;78.81;97632.31;104915;1257;101652;-79
2023/09/10 02:56:16;;;;;;;15.20;12.20;;;;;;;13.04;78.88;97630.55;104965;1266;100228;-79
2023/09/10 02:58:44;;;;;;;14.70;12.70;;;;;;;13.02;78.80;97629.37;104963;1257;96551;-79
2023/09/10 03:01:11;;;;;;;13.50;11.90;;;;;;;13.00;78.90;97628.91;105003;1253;97501;-72
2023/09/10 03:03:39;;;;;;;16.40;12.50;;;;;;;12.98;78.74;97630.64;104845;1259;102406;-72
2023/09/10 03:06:14;;;;;;;17.30;11.40;;;;;;;12.95;78.78;97628.23;104836;1264;101389;-72
2023/09/10 03:08:42;;;;;;;17.10;11.50;;;;;;;12.92;78.80;97629.05;104521;1273;99756;-72
2023/09/10 03:11:10;;;;;;;13.30;11.00;;;;;;;12.89;78.86;97628.34;104850;1260;97532;-72
2023/09/10 03:13:38;;;;;;;12.80;11.00;;;;;;;12.89;78.94;97633.96;104843;1278;97024;-72
2023/09/10 03:16:06;;;;;;;16.80;11.80;;;;;;;12.89;78.88;97630.96;104846;1260;102274;-80
2023/09/10 03:18:33;;;;;;;14.40;11.10;;;;;;;12.89;78.87;97628.80;104815;1264;101380;-81
2023/09/10 03:21:04;;;;;;;15.20;12.20;;;;;;;12.88;78.77;97627.89;104820;1268;100111;-81
2023/09/10 03:23:31;;;;;;;15.60;12.80;;;;;;;12.87;78.93;97630.77;104544;1263;96937;-80
2023/09/10 03:25:59;;;;;;;13.60;12.00;;;;;;;12.85;78.88;97629.65;104861;1273;96568;-81
2023/09/10 03:28:27;;;;;;;14.60;11.60;;;;;;;12.84;78.98;97627.53;104878;1274;101255;-80
2023/09/10 03:30:58;;;;;;;15.40;11.70;;;;;;;12.83;78.96;97628.74;104874;1268;101453;-81
2023/09/10 03:33:26;;;;;;;14.10;11.70;;;;;;;12.83;79.08;97629.33;104804;1270;99996;-80
2023/09/10 03:35:54;;;;;;;16.30;12.70;;;;;;;12.82;79.25;97629.71;104851;1260;96675;-73
2023/09/10 03:38:21;;;;;;;16.00;12.60;;;;;;;12.81;79.19;97629.81;104821;1271;97128;-73
2023/09/10 03:40:49;;;;;;;13.30;11.90;;;;;;;12.81;79.09;97629.31;104886;1267;102152;-72
2023/09/10 03:43:18;;;;;;;14.80;12.80;;;;;;;12.79;79.25;97631.09;104860;1261;101425;-72
2023/09/10 03:45:45;;;;;;;17.00;13.10;;;;;;;12.78;79.32;97634.64;104882;1254;99100;-81
2023/09/10 03:48:14;;;;;;;16.00;13.10;;;;;;;12.76;79.24;97632.23;104829;1261;96840;-80
2023/09/10 03:50:42;;;;;;;16.70;12.40;;;;;;;12.74;79.29;97633.86;104955;1257;97073;-81
2023/09/10 03:53:09;;;;;;;12.80;11.20;;;;;;;12.74;79.31;97631.70;104837;1260;102483;-81
2023/09/10 03:55:37;;;;;;;16.80;11.40;;;;;;;12.74;79.15;97629.58;104802;1269;100267;-72
2023/09/10 03:58:05;;;;;;;16.60;13.40;;;;;;;12.71;79.20;97627.41;104847;1260;99986;-72
2023/09/10 04:00:34;;;;;;;14.70;11.90;;;;;;;12.65;79.34;97625.14;104887;1267;96591;-73
2023/09/10 04:03:02;;;;;;;16.30;13.00;;;;;;;12.61;79.51;97627.04;104657;1263;98063;-73
2023/09/10 04:05:30;;;;;;;15.10;12.50;;;;;;;12.58;79.73;97625.02;104856;1260;102238;-73
2023/09/10 04:07:58;;;;;;;16.50;12.90;;;;;;;12.54;80.00;97622.14;104862;1267;101479;-72
2023/09/10 04:10:27;;;;;;;16.70;13.00;;;;;;;12.55;79.94;97622.98;104910;1260;98443;-72
2023/09/10 04:12:54;;;;;;;17.40;12.80;;;;;;;12.58;79.95;97622.46;104876;1270;96558;-72
2023/09/10 04:15:22;;;;;;;17.50;13.50;;;;;;;12.60;79.96;97623.46;104848;1267;97109;-73
2023/09/10 04:17:50;;;;;;;15.60;13.50;;;;;;;12.59;79.92;97622.59;104775;1270;101737;-72
2023/09/10 04:20:19;;;;;;;18.80;13.30;;;;;;;12.59;79.93;97622.05;104859;1261;101312;-72
2023/09/10 04:22:48;;;;;;;17.20;15.30;;;;;;;12.59;79.92;97616.34;104887;1269;99610;-73
2023/09/10 04:25:16;;;;;;;22.50;20.20;;;;;;;12.57;80.20;97613.96;104572;1271;97050;-72
2023/09/10 04:27:43;;;;;;;30.80;23.50;;;;;;;12.55;80.57;97617.54;104837;1260;98001;-72
2023/09/10 04:30:11;;;;;;;27.80;21.10;;;;;;;12.53;80.78;97617.17;104852;1268;101876;-72
2023/09/10 04:32:39;;;;;;;22.00;19.60;;;;;;;12.52;80.88;97621.02;104808;1260;100384;-73
2023/09/10 04:35:07;;;;;;;26.20;19.70;;;;;;;12.48;81.04;97625.98;104835;1268;99886;-73
2023/09/10 04:37:35;;;;;;;22.10;18.80;;;;;;;12.46;81.30;97623.30;104805;1257;97855;-73
2023/09/10 04:40:06;;;;;;;24.10;19.10;;;;;;;12.46;81.28;97627.05;104859;1261;97048;-73
2023/09/10 04:42:35;;;;;;;20.40;18.10;;;;;;;12.49;81.35;97629.15;104547;1271;102176;-72
2023/09/10 04:45:05;;;;;;;26.70;18.40;;;;;;;12.54;81.36;97635.63;104491;1261;100638;-73
2023/09/10 04:47:33;;;;;;;22.30;18.10;;;;;;;12.59;81.40;97635.46;104504;1263;99084;-73
2023/09/10 04:50:01;;;;;;;21.90;18.30;;;;;;;12.63;81.33;97638.36;104516;1259;96910;-73
2023/09/10 04:52:29;;;;;;;21.90;18.30;;;;;;;12.67;81.22;97638.22;104303;1267;98143;-72
2023/09/10 04:54:57;;;;;;;23.20;19.60;;;;;;;12.71;81.16;97639.09;104392;1265;102269;-72
2023/09/10 04:57:24;;;;;;;22.80;19.50;;;;;;;12.74;81.08;97641.98;104315;1266;100355;-73
2023/09/10 04:59:52;;;;;;;23.70;19.50;;;;;;;12.78;81.14;97644.56;104288;1278;100083;-73
2023/09/10 05:02:20;;;;;;;21.60;18.10;;;;;;;12.82;81.24;97640.52;104334;1270;96832;-78
2023/09/10 05:04:47;;;;;;;21.60;17.90;;;;;;;12.85;81.25;97642.41;104372;1264;97253;-80
2023/09/10 05:07:15;;;;;;;22.80;19.40;;;;;;;12.89;81.17;97645.05;104419;1266;102416;-80
2023/09/10 05:09:42;;;;;;;23.00;18.70;;;;;;;12.94;81.22;97645.25;104394;1275;101466;-79
2023/09/10 05:12:10;;;;;;;20.20;17.80;;;;;;;12.99;81.48;97645.14;104357;1266;99962;-74
2023/09/10 05:14:38;;;;;;;20.70;17.90;;;;;;;13.03;81.57;97644.40;104467;1264;97198;-80
2023/09/10 05:17:05;;;;;;;22.10;17.90;;;;;;;13.05;81.47;97643.29;104548;1273;97583;-74
2023/09/10 05:19:33;;;;;;;21.00;17.30;;;;;;;13.08;81.66;97641.92;104513;1263;102228;-74
2023/09/10 05:22:01;;;;;;;20.90;17.60;;;;;;;13.12;81.75;97642.86;104470;1263;100060;-74
2023/09/10 05:24:28;;;;;;;21.60;18.50;;;;;;;13.17;81.72;97641.09;104709;1258;98795;-74
2023/09/10 05:26:56;;;;;;;23.50;18.70;;;;;;;13.22;81.94;97642.17;104867;1258;96602;-74
2023/09/10 05:29:26;;;;;;;20.70;18.60;;;;;;;13.27;82.00;97640.52;104935;1260;97896;-75
2023/09/10 05:31:53;;;;;;;22.80;17.80;;;;;;;13.33;82.02;97640.15;105205;1254;100774;-83
2023/09/10 05:34:21;;;;;;;21.30;15.90;;;;;;;13.39;82.32;97639.48;105145;1256;100587;-82
2023/09/10 05:36:49;;;;;;;20.20;15.90;;;;;;;13.45;82.35;97641.70;105057;1257;98957;-82
2023/09/10 05:39:16;;;;;;;21.20;16.30;;;;;;;13.51;82.31;97639.79;105077;1257;96724;-82
2023/09/10 05:41:44;;;;;;;22.10;15.10;;;;;;;13.55;82.46;97636.73;105011;1273;97816;-81
2023/09/10 05:44:12;;;;;;;19.60;16.30;;;;;;;13.60;82.63;97638.67;105032;1254;100677;-81
2023/09/10 05:46:39;;;;;;;22.50;16.40;;;;;;;13.66;82.87;97641.06;105159;1257;101561;-82
2023/09/10 05:49:07;;;;;;;19.30;17.20;;;;;;;13.71;82.68;97636.85;105014;1260;108418;-83
2023/09/10 05:51:35;;;;;;;19.00;16.10;;;;;;;13.78;83.03;97636.55;104966;1257;98037;-82
2023/09/10 05:54:03;;;;;;;26.40;16.60;;;;;;;13.85;83.04;97637.73;104955;1261;97163;-74
2023/09/10 05:56:30;;;;;;;19.60;15.70;;;;;;;13.93;83.16;97635.59;104951;1257;100902;-74
2023/09/10 05:58:58;;;;;;;20.80;15.30;;;;;;;14.02;83.05;97633.77;104954;1257;100037;-74
2023/09/10 06:01:26;;;;;;;19.00;16.50;;;;;;;14.09;83.37;97628.39;104997;1256;99876;-80
2023/09/10 06:03:53;;;;;;;17.70;15.80;;;;;;;14.17;83.27;97627.48;104896;1257;97406;-80
2023/09/10 06:06:21;;;;;;;17.40;15.60;;;;;;;14.24;83.25;97628.05;104779;1259;149155;-81
2023/09/10 06:08:49;;;;;;;17.70;15.40;;;;;;;14.32;83.31;97630.34;104900;1261;101176;-80
2023/09/10 06:11:16;;;;;;;18.60;16.30;;;;;;;14.39;83.40;97631.92;104868;1267;100318;-79
2023/09/10 06:13:44;;;;;;;19.50;16.90;;;;;;;14.46;83.56;97630.43;104830;1260;99040;-73
2023/09/10 06:16:12;;;;;;;17.30;15.30;;;;;;;14.54;83.45;97628.35;104886;1269;97212;-73
2023/09/10 06:18:39;;;;;;;18.60;16.50;;;;;;;14.62;83.59;97627.55;104868;1260;98251;-73
2023/09/10 06:21:07;;;;;;;19.00;16.90;;;;;;;14.70;83.61;97623.34;104832;1258;101285;-73
2023/09/10 06:23:35;;;;;;;19.00;16.90;;;;;;;14.77;84.21;97621.85;104880;1260;100348;-73
2023/09/10 06:26:02;;;;;;;19.70;15.80;;;;;;;14.83;84.09;97620.80;104824;1260;99653;-73
2023/09/10 06:28:30;;;;;;;19.20;15.70;;;;;;;14.91;83.93;97618.71;104813;1254;96597;-73
2023/09/10 06:30:58;;;;;;;18.10;16.20;;;;;;;14.99;84.12;97616.95;104899;1256;97048;-74
2023/09/10 06:33:27;;;;;;;17.80;16.00;;;;;;;15.07;84.32;97618.74;104851;1260;109996;-74
2023/09/10 06:35:54;;;;;;;20.80;16.40;;;;;;;15.15;84.57;97619.44;104805;1260;101392;-74
2023/09/10 06:38:22;;;;;;;17.80;15.80;;;;;;;15.24;84.81;97620.61;104831;1260;98956;-74
2023/09/10 06:40:51;;;;;;;19.30;17.20;;;;;;;15.33;84.70;97620.08;104905;1257;97900;-75
2023/09/10 06:43:18;;;;;;;18.50;16.50;;;;;;;15.42;84.49;97620.05;104809;1259;97183;-75
2023/09/10 06:45:46;;;;;;;19.40;16.70;;;;;;;15.50;84.65;97619.44;104880;1267;102194;-75
2023/09/10 06:48:14;;;;;;;17.60;15.40;;;;;;;15.61;84.75;97617.52;104879;1260;101370;-74
2023/09/10 06:50:41;;;;;;;17.50;15.50;;;;;;;15.70;84.93;97615.99;104819;1268;98646;-74
2023/09/10 06:53:09;;;;;;;17.80;15.90;;;;;;;15.80;85.08;97619.33;104848;1259;96606;-74
2023/09/10 06:55:37;;;;;;;17.90;15.70;;;;;;;15.92;84.98;97619.89;104899;1254;97108;-74
2023/09/10 06:58:04;;;;;;;20.30;15.00;;;;;;;16.02;85.02;97619.63;104887;1258;101042;-74
2023/09/10 07:00:32;;;;;;;17.10;15.30;;;;;;;16.13;84.87;97619.36;104839;1269;102061;-84
2023/09/10 07:03:02;;;;;;;20.10;16.00;;;;;;;16.25;84.83;97615.89;104759;1257;98888;-83
2023/09/10 07:05:30;;;;;;;19.40;16.40;;;;;;;16.36;84.75;97617.58;104851;1260;97498;-84
2023/09/10 07:07:58;;;;;;;19.50;15.50;;;;;;;16.47;84.79;97617.20;104915;1257;97826;-74
2023/09/10 07:10:25;;;;;;;19.00;15.90;;;;;;;16.60;84.72;97621.91;104594;1261;102239;-84
2023/09/10 07:12:53;;;;;;;18.50;16.50;;;;;;;16.73;84.62;97618.08;104897;1277;100322;-84
2023/09/10 07:15:23;;;;;;;20.60;16.00;;;;;;;16.86;84.62;97614.61;104865;1270;99805;-85
2023/09/10 07:17:51;;;;;;;19.20;16.10;;;;;;;17.02;84.49;97617.59;104855;1258;96667;-75
2023/09/10 07:20:19;;;;;;;20.30;14.90;;;;;;;17.15;84.37;97616.13;104903;1254;97067;-74
2023/09/10 07:22:46;;;;;;;20.30;16.20;;;;;;;17.31;84.59;97618.29;104865;1261;102214;-75
2023/09/10 07:25:14;;;;;;;19.20;15.70;;;;;;;17.47;84.51;97617.61;104861;1254;101391;-74
2023/09/10 07:27:42;;;;;;;18.30;14.70;;;;;;;17.66;84.34;97612.66;104752;1257;100297;-75
2023/09/10 07:30:11;;;;;;;15.20;13.50;;;;;;;17.88;84.04;97611.90;104825;1270;96616;-74
2023/09/10 07:32:40;;;;;;;15.50;13.60;;;;;;;18.15;83.77;97612.06;104844;1259;97105;-81
2023/09/10 07:35:08;;;;;;;13.90;12.40;;;;;;;18.48;83.77;97613.89;104986;1257;101262;-81
2023/09/10 07:37:36;;;;;;;17.40;13.00;;;;;;;18.89;83.67;97611.96;104811;1260;111180;-81
2023/09/10 07:40:04;;;;;;;16.00;13.20;;;;;;;19.26;83.06;97612.08;104833;1270;99015;-81
2023/09/10 07:42:31;;;;;;;13.90;11.90;;;;;;;19.68;82.31;97610.04;104793;1254;97212;-81
2023/09/10 07:44:59;;;;;;;15.00;12.20;;;;;;;20.12;81.62;97612.68;104853;1254;97030;-81
2023/09/10 07:47:26;;;;;;;15.40;11.30;;;;;;;20.55;80.68;97610.66;104748;1259;102188;-80
2023/09/10 07:49:54;;;;;;;13.20;11.20;;;;;;;20.95;79.61;97610.20;104846;1258;101337;-81
2023/09/10 07:52:22;;;;;;;12.50;10.70;;;;;;;21.33;78.97;97612.11;104840;1260;99627;-81
2023/09/10 07:54:50;;;;;;;12.00;10.40;;;;;;;21.71;78.41;97611.18;104865;1268;96578;-81
2023/09/10 07:57:17;;;;;;;12.10;10.50;;;;;;;22.08;77.42;97605.00;104874;1258;97791;-80
2023/09/10 07:59:45;;;;;;;11.90;10.70;;;;;;;22.39;76.00;97601.96;104847;1258;102148;-81
2023/09/10 08:02:13;;;;;;;13.60;11.50;;;;;;;22.65;74.65;97602.83;104885;1270;100517;-81
2023/09/10 08:04:40;;;;;;;12.00;10.10;;;;;;;22.94;74.13;97604.27;104782;1273;99871;-74
2023/09/10 08:07:09;;;;;;;11.70;10.50;;;;;;;23.23;73.29;97601.95;104780;1260;96678;-86
2023/09/10 08:09:38;;;;;;;15.00;10.40;;;;;;;23.53;72.98;97601.86;104884;1257;97078;-86
2023/09/10 08:12:06;;;;;;;12.20;10.30;;;;;;;23.88;72.48;97601.63;104921;1261;102402;-85
2023/09/10 08:14:35;;;;;;;16.80;10.60;;;;;;;24.26;72.01;97599.95;104828;1254;100390;-85
2023/09/10 08:17:03;;;;;;;12.00;10.40;;;;;;;24.61;71.36;97600.71;104569;1265;98560;-85
2023/09/10 08:19:31;;;;;;;10.70;9.70;;;;;;;24.96;70.39;97594.98;104772;1259;97498;-84
2023/09/10 08:21:59;;;;;;;12.60;10.50;;;;;;;25.29;69.17;97594.79;104790;1260;97130;-86
2023/09/10 08:24:26;;;;;;;12.90;11.50;;;;;;;25.56;66.52;97594.69;104792;1259;102150;-74
2023/09/10 08:26:54;;;;;;;11.10;9.90;;;;;;;25.72;63.96;97592.60;104897;1264;101375;-74
2023/09/10 08:29:22;;;;;;;13.00;10.50;;;;;;;25.96;64.71;97592.02;104932;1259;100255;-74
2023/09/10 08:31:49;;;;;;;12.30;9.80;;;;;;;26.30;64.63;97589.71;104871;1259;97525;-81
2023/09/10 08:34:17;;;;;;;10.70;9.00;;;;;;;26.61;64.01;97587.46;104873;1268;97286;-82
2023/09/10 08:36:45;;;;;;;9.80;8.80;;;;;;;26.91;63.18;97585.52;104864;1257;101284;-82
2023/09/10 08:39:12;;;;;;;11.90;9.30;;;;;;;27.20;62.20;97587.16;104871;1258;101382;-81
2023/09/10 08:41:56;;;;;;;10.10;8.90;;;;;;;27.42;61.45;97583.54;104883;1260;99236;-81
2023/09/10 08:44:25;;;;;;;9.60;8.60;;;;;;;27.64;60.41;97578.58;104865;1254;96718;-82
2023/09/10 08:46:56;;;;;;;11.90;9.90;;;;;;;27.81;59.82;97580.34;104890;1268;98181;-81
2023/09/10 08:49:27;;;;;;;11.70;9.50;;;;;;;27.98;59.24;97581.89;104601;1262;100818;-81
2023/09/10 08:51:56;;;;;;;11.00;9.30;;;;;;;28.15;58.71;97580.54;104955;1259;100174;-82
2023/09/10 08:54:24;;;;;;;10.20;9.10;;;;;;;28.27;57.74;97580.46;104979;1269;99289;-81
2023/09/10 08:56:54;;;;;;;10.50;9.40;;;;;;;28.35;57.62;97583.36;104797;1257;97213;-81
2023/09/10 08:59:23;;;;;;;10.00;9.00;;;;;;;28.42;57.00;97580.48;104686;1259;97110;-81
2023/09/10 09:01:51;;;;;;;10.20;9.20;;;;;;;28.49;57.18;97580.17;105012;1259;102054;-81
2023/09/10 09:04:19;;;;;;;11.20;9.20;;;;;;;28.59;56.25;97582.09;104902;1268;100349;-84
2023/09/10 09:06:53;;;;;;;11.00;8.90;;;;;;;28.68;56.37;97579.75;104627;1261;99932;-79
2023/09/10 09:09:23;;;;;;;12.10;8.80;;;;;;;28.84;56.33;97579.60;104831;1259;97771;-79
2023/09/10 09:11:54;;;;;;;9.80;8.50;;;;;;;28.97;55.70;97576.64;104807;1258;98170;-79
2023/09/10 09:14:23;;;;;;;9.50;8.50;;;;;;;29.10;55.54;97571.34;104572;1266;103212;-78
2023/09/10 09:16:53;;;;;;;9.60;8.60;;;;;;;29.25;54.54;97573.23;104832;1254;101321;-79
2023/09/10 09:19:22;;;;;;;9.90;8.90;;;;;;;29.25;53.20;97571.16;104951;1259;98904;-78
2023/09/10 09:21:51;;;;;;;10.80;8.50;;;;;;;29.28;53.85;97569.80;104887;1260;96648;-79
2023/09/10 09:24:21;;;;;;;9.30;8.40;;;;;;;29.42;53.42;97571.20;104897;1257;97897;-79
2023/09/10 09:26:52;;;;;;;8.70;7.90;;;;;;;29.59;52.74;97568.98;104637;1257;100853;-79
2023/09/10 09:29:20;;;;;;;9.70;8.00;;;;;;;29.76;51.45;97567.60;104613;1261;101842;-79
2023/09/10 09:31:48;;;;;;;8.20;7.40;;;;;;;29.89;51.12;97566.67;104428;1257;100042;-83
2023/09/10 09:34:17;;;;;;;9.10;8.10;;;;;;;30.05;50.62;97567.36;104560;1260;96652;-83
2023/09/10 09:36:51;;;;;;;9.70;7.90;;;;;;;30.18;50.02;97568.08;104549;1257;97351;-85
2023/09/10 09:39:20;;;;;;;9.30;7.60;;;;;;;30.29;49.30;97568.55;104564;1259;102360;-82
2023/09/10 09:41:52;;;;;;;8.70;7.70;;;;;;;30.34;49.05;97563.97;104682;1261;100178;-79
2023/09/10 09:44:20;;;;;;;8.40;7.60;;;;;;;30.44;49.21;97560.48;104607;1263;98915;-79
2023/09/10 09:46:49;;;;;;;8.40;6.50;;;;;;;30.57;49.25;97558.55;104577;1261;96806;-79
2023/09/10 09:49:17;;;;;;;8.00;7.00;;;;;;;30.68;48.81;97559.05;104684;1260;97176;-79
2023/09/10 09:51:45;;;;;;;7.90;7.10;;;;;;;30.78;48.73;97554.61;104442;1265;102287;-79
2023/09/10 09:54:13;;;;;;;7.90;6.80;;;;;;;30.91;47.88;97554.94;104540;1260;101776;-79
2023/09/10 09:56:44;;;;;;;8.00;7.00;;;;;;;31.01;47.56;97550.31;104524;1261;99776;-79
2023/09/10 09:59:12;;;;;;;11.50;6.90;;;;;;;31.11;47.15;97549.36;104765;1259;96706;-79
2023/09/10 10:01:40;;;;;;;7.10;6.40;;;;;;;31.19;46.37;97548.30;104886;1259;97025;-74
2023/09/10 10:04:08;;;;;;;10.60;6.80;;;;;;;31.27;46.01;97548.98;104823;1254;102329;-75
2023/09/10 10:06:37;;;;;;;8.00;6.60;;;;;;;31.33;46.45;97544.34;104886;1254;101329;-74
2023/09/10 10:09:04;;;;;;;7.40;6.20;;;;;;;31.40;45.88;97542.04;104892;1270;99055;-74
2023/09/10 10:11:33;;;;;;;8.70;6.30;;;;;;;31.45;44.93;97543.14;104872;1254;97513;-74
2023/09/10 10:14:02;;;;;;;7.20;6.50;;;;;;;31.45;45.00;97543.66;104952;1254;97512;-74
2023/09/10 10:16:31;;;;;;;8.40;6.60;;;;;;;31.47;44.45;97536.49;104594;1254;101365;-74
2023/09/10 10:18:59;;;;;;;8.10;6.10;;;;;;;31.51;43.94;97534.34;104403;1266;111213;-74
2023/09/10 10:21:29;;;;;;;7.60;6.30;;;;;;;31.46;44.49;97533.41;104568;1262;100649;-74
2023/09/10 10:23:58;;;;;;;7.40;6.70;;;;;;;31.44;44.66;97531.75;104624;1260;96737;-74
2023/09/10 10:26:25;;;;;;;6.90;6.10;;;;;;;31.49;44.33;97530.36;104835;1259;97493;-74
2023/09/10 10:28:54;;;;;;;9.90;6.30;;;;;;;31.53;44.25;97527.36;104858;1254;101246;-74
2023/09/10 10:31:30;;;;;;;8.40;6.60;;;;;;;31.52;43.27;97525.03;104869;1258;101383;-81
2023/09/10 10:34:15;;;;;;;7.20;6.50;;;;;;;31.48;43.74;97520.70;104905;1269;99911;-80
2023/09/10 10:36:58;;;;;;;6.70;6.00;;;;;;;31.46;44.13;97520.61;104513;1262;98166;-82
2023/09/10 10:39:39;;;;;;;7.00;6.30;;;;;;;31.44;43.25;97515.98;104949;1256;96904;-82
2023/09/10 10:42:11;;;;;;;7.80;6.20;;;;;;;31.36;43.27;97515.14;104757;1262;101252;-81
2023/09/10 10:44:40;;;;;;;7.60;6.40;;;;;;;31.32;42.88;97514.66;104950;1259;100139;-82
2023/09/10 10:47:19;;;;;;;8.70;6.50;;;;;;;31.30;42.69;97511.25;104881;1272;100203;-74
2023/09/10 10:49:54;;;;;;;6.70;6.00;;;;;;;31.30;42.43;97509.74;104954;1257;96568;-75
2023/09/10 10:52:28;;;;;;;8.20;6.30;;;;;;;31.27;43.01;97509.16;104759;1261;97996;-75
2023/09/10 10:54:57;;;;;;;7.00;6.30;;;;;;;31.25;42.84;97499.67;104958;1259;100821;-75
2023/09/10 10:57:26;;;;;;;6.90;6.20;;;;;;;31.22;42.15;97499.11;104915;1259;100353;-74
2023/09/10 10:59:54;;;;;;;9.40;6.30;;;;;;;31.16;41.63;97499.30;104911;1259;99973;-82
2023/09/10 11:02:24;;;;;;;7.00;6.30;;;;;;;31.08;41.91;97496.33;104861;1256;98092;-82
2023/09/10 11:05:04;;;;;;;6.60;5.90;;;;;;;31.02;42.12;97493.34;104689;1264;97564;-81
2023/09/10 11:07:33;;;;;;;8.80;6.40;;;;;;;30.95;42.46;97492.51;104641;1262;101243;-81
2023/09/10 11:10:27;;;;;;;7.00;5.70;;;;;;;30.89;42.67;97488.05;104682;1261;101377;-81
2023/09/10 11:13:05;;;;;;;7.50;6.70;;;;;;;30.88;42.65;97487.38;104891;1254;99331;-82
2023/09/10 11:15:33;;;;;;;7.50;6.00;;;;;;;30.85;42.66;97485.45;104940;1257;96623;-75
2023/09/10 11:18:41;;;;;;;6.50;5.90;;;;;;;30.84;42.86;97485.06;104562;1257;97282;-79